sensor_id;sensor_type;location;lat;lon;timestamp;pressure;altitude;pressure_sealevel;temperature;humidity
68634;BME280;55625;47.072;22.192;2023-06-01T00:01:56;99921.22;;;13.43;100.00
68634;BME280;55625;47.072;22.192;2023-06-01T00:04:22;99912.53;;;13.47;100.00
68634;BME280;55625;47.072;22.192;2023-06-01T00:06:47;99900.47;;;13.43;100.00
68634;BME280;55625;47.072;22.192;2023-06-01T00:09:13;99911.88;;;13.43;100.00
68634;BME280;55625;47.072;22.192;2023-06-01T00:11:39;99913.13;;;13.42;100.00
68634;BME280;55625;47.072;22.192;2023-06-01T00:14:05;99918.50;;;13.40;100.00
68634;BME280;55625;47.072;22.192;2023-06-01T00:16:31;99912.97;;;13.36;100.00
68634;BME280;55625;47.072;22.192;2023-06-01T00:18:57;99909.94;;;13.30;100.00
68634;BME280;55625;47.072;22.192;2023-06-01T00:21:27;99907.69;;;13.25;100.00
68634;BME280;55625;47.072;22.192;2023-06-01T00:23:53;99911.47;;;13.22;100.00
68634;BME280;55625;47.072;22.192;2023-06-01T00:26:19;99893.25;;;13.20;100.00
68634;BME280;55625;47.072;22.192;2023-06-01T00:28:46;99914.47;;;13.19;100.00
68634;BME280;55625;47.072;22.192;2023-06-01T00:31:12;99908.78;;;13.19;100.00
68634;BME280;55625;47.072;22.192;2023-06-01T00:33:38;99903.41;;;13.21;100.00
68634;BME280;55625;47.072;22.192;2023-06-01T00:36:04;99905.78;;;13.22;100.00
68634;BME280;55625;47.072;22.192;2023-06-01T00:38:30;99916.25;;;13.25;100.00
68634;BME280;55625;47.072;22.192;2023-06-01T00:40:56;99904.53;;;13.23;100.00
68634;BME280;55625;47.072;22.192;2023-06-01T00:43:21;99907.22;;;13.27;100.00
68634;BME280;55625;47.072;22.192;2023-06-01T00:45:47;99902.47;;;13.24;100.00
68634;BME280;55625;47.072;22.192;2023-06-01T00:48:15;99900.88;;;13.23;100.00
68634;BME280;55625;47.072;22.192;2023-06-01T00:50:42;99909.56;;;13.19;100.00
68634;BME280;55625;47.072;22.192;2023-06-01T00:53:18;99905.69;;;13.13;100.00
68634;BME280;55625;47.072;22.192;2023-06-01T00:55:45;99910.59;;;13.13;100.00
68634;BME280;55625;47.072;22.192;2023-06-01T00:58:15;99910.59;;;13.13;100.00
68634;BME280;55625;47.072;22.192;2023-06-01T01:00:41;99912.31;;;13.10;100.00
68634;BME280;55625;47.072;22.192;2023-06-01T01:03:07;99906.75;;;13.06;100.00
68634;BME280;55625;47.072;22.192;2023-06-01T01:05:36;99908.50;;;13.04;100.00
68634;BME280;55625;47.072;22.192;2023-06-01T01:08:28;99902.00;;;13.03;100.00
68634;BME280;55625;47.072;22.192;2023-06-01T01:11:18;99901.81;;;12.98;100.00
68634;BME280;55625;47.072;22.192;2023-06-01T01:16:59;99892.63;;;12.94;100.00
68634;BME280;55625;47.072;22.192;2023-06-01T01:26:08;99896.13;;;12.98;100.00
68634;BME280;55625;47.072;22.192;2023-06-01T01:28:42;99899.75;;;12.98;100.00
68634;BME280;55625;47.072;22.192;2023-06-01T01:31:15;99895.31;;;12.97;100.00
68634;BME280;55625;47.072;22.192;2023-06-01T01:33:41;99887.72;;;12.94;100.00
68634;BME280;55625;47.072;22.192;2023-06-01T01:36:10;99894.66;;;12.93;100.00
68634;BME280;55625;47.072;22.192;2023-06-01T01:38:37;99878.97;;;12.89;100.00
68634;BME280;55625;47.072;22.192;2023-06-01T01:41:03;99882.75;;;12.86;100.00
68634;BME280;55625;47.072;22.192;2023-06-01T01:43:31;99881.16;;;12.85;100.00
68634;BME280;55625;47.072;22.192;2023-06-01T01:54:58;99881.75;;;12.80;100.00
68634;BME280;55625;47.072;22.192;2023-06-01T01:57:26;99883.34;;;12.81;100.00
68634;BME280;55625;47.072;22.192;2023-06-01T01:59:53;99874.47;;;12.79;100.00
68634;BME280;55625;47.072;22.192;2023-06-01T02:02:20;99879.38;;;12.78;100.00
68634;BME280;55625;47.072;22.192;2023-06-01T02:04:46;99880.16;;;12.79;100.00
68634;BME280;55625;47.072;22.192;2023-06-01T02:07:12;99876.06;;;12.80;100.00
68634;BME280;55625;47.072;22.192;2023-06-01T02:09:39;99881.09;;;12.75;100.00
68634;BME280;55625;47.072;22.192;2023-06-01T02:12:06;99877.47;;;12.75;100.00
68634;BME280;55625;47.072;22.192;2023-06-01T02:14:33;99882.81;;;12.73;100.00
68634;BME280;55625;47.072;22.192;2023-06-01T02:16:58;99875.41;;;12.75;100.00
68634;BME280;55625;47.072;22.192;2023-06-01T02:19:29;99871.94;;;12.81;100.00
68634;BME280;55625;47.072;22.192;2023-06-01T02:21:55;99877.31;;;12.79;100.00
68634;BME280;55625;47.072;22.192;2023-06-01T02:24:21;99878.56;;;12.78;100.00
68634;BME280;55625;47.072;22.192;2023-06-01T02:26:47;99876.72;;;12.84;100.00
68634;BME280;55625;47.072;22.192;2023-06-01T02:29:14;99880.72;;;12.86;100.00
68634;BME280;55625;47.072;22.192;2023-06-01T02:31:40;99870.75;;;12.91;100.00
68634;BME280;55625;47.072;22.192;2023-06-01T02:34:06;99876.50;;;13.00;100.00
68634;BME280;55625;47.072;22.192;2023-06-01T02:36:32;99871.56;;;12.91;100.00
68634;BME280;55625;47.072;22.192;2023-06-01T02:38:59;99874.88;;;12.90;100.00
68634;BME280;55625;47.072;22.192;2023-06-01T02:41:25;99869.97;;;12.90;100.00
68634;BME280;55625;47.072;22.192;2023-06-01T02:43:51;99871.56;;;12.91;100.00
68634;BME280;55625;47.072;22.192;2023-06-01T02:46:18;99878.66;;;12.87;100.00
68634;BME280;55625;47.072;22.192;2023-06-01T02:48:45;99871.00;;;12.84;100.00
68634;BME280;55625;47.072;22.192;2023-06-01T02:51:12;99879.22;;;12.82;100.00
68634;BME280;55625;47.072;22.192;2023-06-01T02:53:41;99881.75;;;12.80;100.00
68634;BME280;55625;47.072;22.192;2023-06-01T02:56:08;99877.00;;;12.77;100.00
68634;BME280;55625;47.072;22.192;2023-06-01T02:58:34;99881.88;;;12.76;100.00
68634;BME280;55625;47.072;22.192;2023-06-01T03:01:00;99880.16;;;12.79;100.00
68634;BME280;55625;47.072;22.192;2023-06-01T03:03:27;99888.38;;;12.77;100.00
68634;BME280;55625;47.072;22.192;2023-06-01T03:05:53;99875.41;;;12.75;100.00
68634;BME280;55625;47.072;22.192;2023-06-01T03:08:19;99884.41;;;12.74;100.00
68634;BME280;55625;47.072;22.192;2023-06-01T03:10:45;99883.63;;;12.73;100.00
68634;BME280;55625;47.072;22.192;2023-06-01T03:13:12;99880.78;;;12.73;100.00
68634;BME280;55625;47.072;22.192;2023-06-01T03:15:38;99889.31;;;12.73;100.00
68634;BME280;55625;47.072;22.192;2023-06-01T03:18:04;99884.09;;;12.72;100.00
68634;BME280;55625;47.072;22.192;2023-06-01T03:20:34;99877.59;;;12.71;100.00
68634;BME280;55625;47.072;22.192;2023-06-01T03:23:00;99880.13;;;12.69;100.00
68634;BME280;55625;47.072;22.192;2023-06-01T03:25:26;99881.56;;;12.74;100.00
68634;BME280;55625;47.072;22.192;2023-06-01T03:27:52;99883.63;;;12.73;100.00
68634;BME280;55625;47.072;22.192;2023-06-01T03:30:18;99886.00;;;12.75;100.00
68634;BME280;55625;47.072;22.192;2023-06-01T03:32:44;99880.31;;;12.75;100.00
68634;BME280;55625;47.072;22.192;2023-06-01T03:35:13;99874.59;;;12.75;100.00
68634;BME280;55625;47.072;22.192;2023-06-01T03:37:43;99875.72;;;12.78;100.00
68634;BME280;55625;47.072;22.192;2023-06-01T03:40:09;99867.50;;;12.80;100.00
68634;BME280;55625;47.072;22.192;2023-06-01T03:42:45;99873.41;;;12.85;100.00
68634;BME280;55625;47.072;22.192;2023-06-01T03:45:13;99872.34;;;12.92;100.00
68634;BME280;55625;47.072;22.192;2023-06-01T03:47:39;99872.06;;;12.99;100.00
68634;BME280;55625;47.072;22.192;2023-06-01T03:50:07;99866.41;;;13.08;100.00
68634;BME280;55625;47.072;22.192;2023-06-01T03:52:35;99871.81;;;13.15;100.00
68634;BME280;55625;47.072;22.192;2023-06-01T03:55:03;99858.13;;;13.23;100.00
68634;BME280;55625;47.072;22.192;2023-06-01T03:57:36;99858.47;;;13.34;100.00
68634;BME280;55625;47.072;22.192;2023-06-01T04:00:05;99872.75;;;13.43;100.00
68634;BME280;55625;47.072;22.192;2023-06-01T04:02:57;99871.53;;;13.53;100.00
68634;BME280;55625;47.072;22.192;2023-06-01T04:05:25;99870.94;;;13.67;100.00
68634;BME280;55625;47.072;22.192;2023-06-01T04:07:53;99877.00;;;13.79;100.00
68634;BME280;55625;47.072;22.192;2023-06-01T04:10:20;99863.53;;;13.88;100.00
68634;BME280;55625;47.072;22.192;2023-06-01T04:12:47;99859.59;;;14.04;100.00
68634;BME280;55625;47.072;22.192;2023-06-01T04:15:16;99861.66;;;14.13;100.00
68634;BME280;55625;47.072;22.192;2023-06-01T04:17:43;99857.84;;;14.25;100.00
68634;BME280;55625;47.072;22.192;2023-06-01T04:20:15;99857.53;;;14.41;100.00
68634;BME280;55625;47.072;22.192;2023-06-01T04:22:45;99857.56;;;14.50;100.00
68634;BME280;55625;47.072;22.192;2023-06-01T04:25:14;99858.81;;;14.58;100.00
68634;BME280;55625;47.072;22.192;2023-06-01T04:27:51;99863.09;;;14.72;100.00
68634;BME280;55625;47.072;22.192;2023-06-01T04:30:20;99862.91;;;14.85;98.78
68634;BME280;55625;47.072;22.192;2023-06-01T04:32:47;99863.66;;;14.95;99.89
68634;BME280;55625;47.072;22.192;2023-06-01T04:35:14;99864.94;;;15.03;100.00
68634;BME280;55625;47.072;22.192;2023-06-01T04:37:41;99862.00;;;15.21;99.81
68634;BME280;55625;47.072;22.192;2023-06-01T04:40:08;99856.69;;;15.38;98.70
68634;BME280;55625;47.072;22.192;2023-06-01T04:42:37;99863.28;;;15.53;99.13
68634;BME280;55625;47.072;22.192;2023-06-01T04:45:15;99865.59;;;15.73;98.76
68634;BME280;55625;47.072;22.192;2023-06-01T04:47:41;99866.81;;;15.81;98.22
68634;BME280;55625;47.072;22.192;2023-06-01T04:50:12;99865.66;;;15.88;97.38
68634;BME280;55625;47.072;22.192;2023-06-01T04:52:39;99860.97;;;15.99;96.73
68634;BME280;55625;47.072;22.192;2023-06-01T04:55:06;99858.22;;;16.05;98.27
68634;BME280;55625;47.072;22.192;2023-06-01T04:57:36;99859.25;;;16.17;96.52
68634;BME280;55625;47.072;22.192;2023-06-01T05:00:05;99861.56;;;16.27;96.10
68634;BME280;55625;47.072;22.192;2023-06-01T05:02:42;99845.47;;;16.30;96.44
68634;BME280;55625;47.072;22.192;2023-06-01T05:05:12;99845.28;;;16.33;94.66
68634;BME280;55625;47.072;22.192;2023-06-01T05:07:40;99854.75;;;16.39;94.35
68634;BME280;55625;47.072;22.192;2023-06-01T05:10:09;99845.28;;;16.48;94.23
68634;BME280;55625;47.072;22.192;2023-06-01T05:12:36;99842.94;;;16.61;92.76
68634;BME280;55625;47.072;22.192;2023-06-01T05:15:08;99847.81;;;16.70;92.52
68634;BME280;55625;47.072;22.192;2023-06-01T05:17:34;99851.78;;;16.87;92.89
68634;BME280;55625;47.072;22.192;2023-06-01T05:20:00;99851.00;;;17.01;91.86
68634;BME280;55625;47.072;22.192;2023-06-01T05:22:26;99860.97;;;17.21;91.72
68634;BME280;55625;47.072;22.192;2023-06-01T05:24:52;99860.53;;;17.43;90.18
68634;BME280;55625;47.072;22.192;2023-06-01T05:27:18;99858.13;;;17.56;88.11
68634;BME280;55625;47.072;22.192;2023-06-01T05:29:44;99857.03;;;17.68;88.39
68634;BME280;55625;47.072;22.192;2023-06-01T05:32:10;99858.06;;;17.85;85.72
68634;BME280;55625;47.072;22.192;2023-06-01T05:34:36;99857.41;;;17.96;87.32
68634;BME280;55625;47.072;22.192;2023-06-01T05:37:02;99855.56;;;18.13;85.33
68634;BME280;55625;47.072;22.192;2023-06-01T05:39:28;99858.50;;;18.19;84.40
68634;BME280;55625;47.072;22.192;2023-06-01T05:41:58;99849.81;;;18.34;84.57
68634;BME280;55625;47.072;22.192;2023-06-01T05:44:24;99843.47;;;18.50;83.88
68634;BME280;55625;47.072;22.192;2023-06-01T05:46:50;99846.84;;;18.48;81.56
68634;BME280;55625;47.072;22.192;2023-06-01T05:49:18;99840.88;;;18.52;82.38
68634;BME280;55625;47.072;22.192;2023-06-01T05:51:45;99851.50;;;18.66;83.56
68634;BME280;55625;47.072;22.192;2023-06-01T05:54:12;99859.00;;;18.84;83.46
68634;BME280;55625;47.072;22.192;2023-06-01T05:56:38;99854.88;;;18.90;84.79
68634;BME280;55625;47.072;22.192;2023-06-01T05:59:06;99853.63;;;18.97;81.25
68634;BME280;55625;47.072;22.192;2023-06-01T06:01:32;99855.53;;;19.00;80.23
68634;BME280;55625;47.072;22.192;2023-06-01T06:03:58;99861.56;;;19.02;81.59
68634;BME280;55625;47.072;22.192;2023-06-01T06:06:25;99858.53;;;19.17;80.13
68634;BME280;55625;47.072;22.192;2023-06-01T06:08:52;99863.88;;;19.30;79.50
68634;BME280;55625;47.072;22.192;2023-06-01T06:11:18;99859.28;;;19.43;79.44
68634;BME280;55625;47.072;22.192;2023-06-01T06:13:44;99855.72;;;19.54;76.68
68634;BME280;55625;47.072;22.192;2023-06-01T06:16:10;99861.81;;;19.62;75.26
68634;BME280;55625;47.072;22.192;2023-06-01T06:18:36;99862.13;;;19.75;72.80
68634;BME280;55625;47.072;22.192;2023-06-01T06:21:02;99862.25;;;19.92;74.44
68634;BME280;55625;47.072;22.192;2023-06-01T06:23:28;99862.88;;;20.12;74.75
68634;BME280;55625;47.072;22.192;2023-06-01T06:25:55;99865.31;;;20.31;73.14
68634;BME280;55625;47.072;22.192;2023-06-01T06:28:21;99870.38;;;20.47;70.74
68634;BME280;55625;47.072;22.192;2023-06-01T06:30:48;99866.50;;;20.61;71.70
68634;BME280;55625;47.072;22.192;2023-06-01T06:33:15;99868.84;;;20.63;70.30
68634;BME280;55625;47.072;22.192;2023-06-01T06:35:42;99858.91;;;20.75;70.67
68634;BME280;55625;47.072;22.192;2023-06-01T06:38:08;99858.44;;;20.99;70.38
68634;BME280;55625;47.072;22.192;2023-06-01T06:40:34;99862.94;;;21.28;67.66
68634;BME280;55625;47.072;22.192;2023-06-01T06:43:00;99865.84;;;21.45;69.06
68634;BME280;55625;47.072;22.192;2023-06-01T06:45:25;99865.28;;;21.68;71.13
68634;BME280;55625;47.072;22.192;2023-06-01T06:47:51;99859.72;;;21.87;69.63
68634;BME280;55625;47.072;22.192;2023-06-01T06:50:17;99858.88;;;22.20;69.42
68634;BME280;55625;47.072;22.192;2023-06-01T06:52:43;99866.06;;;22.55;66.88
68634;BME280;55625;47.072;22.192;2023-06-01T06:55:09;99865.28;;;22.54;63.32
68634;BME280;55625;47.072;22.192;2023-06-01T06:57:35;99867.84;;;22.63;63.90
68634;BME280;55625;47.072;22.192;2023-06-01T07:00:01;99863.31;;;22.85;66.88
68634;BME280;55625;47.072;22.192;2023-06-01T07:02:29;99856.84;;;23.09;63.70
68634;BME280;55625;47.072;22.192;2023-06-01T07:04:56;99859.63;;;23.20;64.61
68634;BME280;55625;47.072;22.192;2023-06-01T07:07:22;99856.91;;;23.33;60.61
68634;BME280;55625;47.072;22.192;2023-06-01T07:09:48;99851.66;;;23.32;62.33
68634;BME280;55625;47.072;22.192;2023-06-01T07:12:14;99858.56;;;23.53;64.08
68634;BME280;55625;47.072;22.192;2023-06-01T07:14:40;99859.22;;;23.70;60.27
68634;BME280;55625;47.072;22.192;2023-06-01T07:17:06;99848.09;;;23.74;63.15
68634;BME280;55625;47.072;22.192;2023-06-01T07:19:32;99843.66;;;23.98;64.84
68634;BME280;55625;47.072;22.192;2023-06-01T07:22:01;99850.63;;;24.08;59.49
68634;BME280;55625;47.072;22.192;2023-06-01T07:24:27;99842.31;;;23.99;59.00
68634;BME280;55625;47.072;22.192;2023-06-01T07:26:54;99842.19;;;23.85;58.85
68634;BME280;55625;47.072;22.192;2023-06-01T07:29:21;99839.53;;;23.88;59.32
68634;BME280;55625;47.072;22.192;2023-06-01T07:31:50;99839.50;;;24.12;61.66
68634;BME280;55625;47.072;22.192;2023-06-01T07:34:19;99842.25;;;24.29;59.28
68634;BME280;55625;47.072;22.192;2023-06-01T07:36:46;99847.03;;;24.45;59.62
68634;BME280;55625;47.072;22.192;2023-06-01T07:39:13;99853.81;;;24.53;56.79
68634;BME280;55625;47.072;22.192;2023-06-01T07:41:40;99846.69;;;24.54;55.81
68634;BME280;55625;47.072;22.192;2023-06-01T07:44:07;99846.44;;;24.52;58.78
68634;BME280;55625;47.072;22.192;2023-06-01T07:46:34;99841.50;;;24.66;55.46
68634;BME280;55625;47.072;22.192;2023-06-01T07:49:00;99840.25;;;24.61;56.90
68634;BME280;55625;47.072;22.192;2023-06-01T07:51:26;99834.19;;;24.59;54.77
68634;BME280;55625;47.072;22.192;2023-06-01T07:53:52;99835.03;;;24.73;57.32
68634;BME280;55625;47.072;22.192;2023-06-01T07:56:20;99832.91;;;24.92;56.46
68634;BME280;55625;47.072;22.192;2023-06-01T07:58:46;99834.00;;;25.08;57.22
68634;BME280;55625;47.072;22.192;2023-06-01T08:01:12;99841.34;;;25.28;55.06
68634;BME280;55625;47.072;22.192;2023-06-01T08:03:42;99836.31;;;25.28;53.99
68634;BME280;55625;47.072;22.192;2023-06-01T08:06:09;99835.91;;;25.37;54.09
68634;BME280;55625;47.072;22.192;2023-06-01T08:08:35;99831.34;;;25.42;52.52
68634;BME280;55625;47.072;22.192;2023-06-01T08:11:01;99821.28;;;25.43;52.20
68634;BME280;55625;47.072;22.192;2023-06-01T08:13:27;99822.75;;;25.50;53.83
68634;BME280;55625;47.072;22.192;2023-06-01T08:15:53;99819.06;;;25.49;56.20
68634;BME280;55625;47.072;22.192;2023-06-01T08:18:19;99806.94;;;25.77;56.27
68634;BME280;55625;47.072;22.192;2023-06-01T08:20:48;99810.41;;;25.89;52.71
68634;BME280;55625;47.072;22.192;2023-06-01T08:23:14;99816.69;;;25.80;51.60
68634;BME280;55625;47.072;22.192;2023-06-01T08:25:45;99805.94;;;26.01;54.81
68634;BME280;55625;47.072;22.192;2023-06-01T08:28:11;99807.03;;;25.98;53.21
68634;BME280;55625;47.072;22.192;2023-06-01T08:30:37;99817.56;;;26.01;50.65
68634;BME280;55625;47.072;22.192;2023-06-01T08:33:03;99811.06;;;25.95;50.17
68634;BME280;55625;47.072;22.192;2023-06-01T08:35:29;99802.81;;;26.12;52.42
68634;BME280;55625;47.072;22.192;2023-06-01T08:38:02;99810.53;;;26.36;54.01
68634;BME280;55625;47.072;22.192;2023-06-01T08:40:29;99804.97;;;26.59;52.24
68634;BME280;55625;47.072;22.192;2023-06-01T08:43:19;99807.16;;;26.79;52.38
68634;BME280;55625;47.072;22.192;2023-06-01T08:45:46;99802.13;;;26.80;51.67
68634;BME280;55625;47.072;22.192;2023-06-01T08:48:17;99799.06;;;26.85;51.93
68634;BME280;55625;47.072;22.192;2023-06-01T08:50:49;99797.94;;;26.88;50.90
68634;BME280;55625;47.072;22.192;2023-06-01T08:53:20;99794.91;;;26.94;51.88
68634;BME280;55625;47.072;22.192;2023-06-01T08:55:55;99787.91;;;27.10;50.84
68634;BME280;55625;47.072;22.192;2023-06-01T08:58:21;99785.47;;;27.22;49.72
68634;BME280;55625;47.072;22.192;2023-06-01T09:00:49;99779.72;;;27.30;49.79
68634;BME280;55625;47.072;22.192;2023-06-01T09:03:15;99782.84;;;27.32;50.22
68634;BME280;55625;47.072;22.192;2023-06-01T09:05:41;99775.81;;;27.27;47.64
68634;BME280;55625;47.072;22.192;2023-06-01T09:08:09;99772.69;;;27.25;49.41
68634;BME280;55625;47.072;22.192;2023-06-01T09:10:35;99777.72;;;27.45;49.51
68634;BME280;55625;47.072;22.192;2023-06-01T09:13:01;99779.69;;;27.71;48.32
68634;BME280;55625;47.072;22.192;2023-06-01T09:15:29;99775.56;;;27.95;46.92
68634;BME280;55625;47.072;22.192;2023-06-01T09:18:07;99784.13;;;27.93;45.44
68634;BME280;55625;47.072;22.192;2023-06-01T09:20:33;99771.97;;;27.81;45.72
68634;BME280;55625;47.072;22.192;2023-06-01T09:22:59;99765.25;;;27.94;46.05
68634;BME280;55625;47.072;22.192;2023-06-01T09:25:28;99769.69;;;27.88;46.39
68634;BME280;55625;47.072;22.192;2023-06-01T09:27:56;99758.34;;;27.76;45.40
68634;BME280;55625;47.072;22.192;2023-06-01T09:30:24;99759.06;;;27.69;44.66
68634;BME280;55625;47.072;22.192;2023-06-01T09:33:09;99758.50;;;27.71;49.07
68634;BME280;55625;47.072;22.192;2023-06-01T09:35:44;99759.94;;;27.85;44.50
68634;BME280;55625;47.072;22.192;2023-06-01T09:38:11;99756.88;;;27.91;44.29
68634;BME280;55625;47.072;22.192;2023-06-01T09:40:38;99763.03;;;28.15;44.23
68634;BME280;55625;47.072;22.192;2023-06-01T09:43:21;99765.53;;;28.11;42.68
68634;BME280;55625;47.072;22.192;2023-06-01T09:46:08;99759.22;;;27.92;40.75
68634;BME280;55625;47.072;22.192;2023-06-01T09:48:34;99752.09;;;27.72;44.00
68634;BME280;55625;47.072;22.192;2023-06-01T09:51:01;99769.38;;;27.99;43.56
68634;BME280;55625;47.072;22.192;2023-06-01T09:53:27;99756.63;;;28.17;44.00
68634;BME280;55625;47.072;22.192;2023-06-01T09:56:00;99765.09;;;28.36;44.66
68634;BME280;55625;47.072;22.192;2023-06-01T09:58:27;99762.56;;;28.40;43.35
68634;BME280;55625;47.072;22.192;2023-06-01T10:00:54;99759.94;;;28.57;43.24
68634;BME280;55625;47.072;22.192;2023-06-01T10:03:22;99755.63;;;28.51;40.38
68634;BME280;55625;47.072;22.192;2023-06-01T10:05:49;99764.91;;;28.41;42.87
68634;BME280;55625;47.072;22.192;2023-06-01T10:08:17;99760.50;;;28.48;43.05
68634;BME280;55625;47.072;22.192;2023-06-01T10:10:46;99749.00;;;28.50;42.97
68634;BME280;55625;47.072;22.192;2023-06-01T10:13:12;99750.59;;;28.66;43.85
68634;BME280;55625;47.072;22.192;2023-06-01T10:15:38;99743.22;;;28.73;42.56
68634;BME280;55625;47.072;22.192;2023-06-01T10:18:05;99747.88;;;28.68;41.45
68634;BME280;55625;47.072;22.192;2023-06-01T10:20:37;99742.69;;;28.90;41.06
68634;BME280;55625;47.072;22.192;2023-06-01T10:23:04;99739.56;;;28.88;43.44
68634;BME280;55625;47.072;22.192;2023-06-01T10:25:42;99736.06;;;28.97;42.13
68634;BME280;55625;47.072;22.192;2023-06-01T10:28:13;99731.41;;;29.17;41.28
68634;BME280;55625;47.072;22.192;2023-06-01T10:30:39;99736.84;;;29.35;42.32
68634;BME280;55625;47.072;22.192;2023-06-01T10:33:06;99728.31;;;29.22;40.99
68634;BME280;55625;47.072;22.192;2023-06-01T10:40:45;99708.53;;;28.69;41.98
68634;BME280;55625;47.072;22.192;2023-06-01T10:46:02;99705.50;;;28.90;41.76
68634;BME280;55625;47.072;22.192;2023-06-01T10:48:52;99711.44;;;28.54;40.93
68634;BME280;55625;47.072;22.192;2023-06-01T10:51:20;99708.91;;;28.51;42.55
68634;BME280;55625;47.072;22.192;2023-06-01T10:53:47;99696.66;;;28.67;43.77
68634;BME280;55625;47.072;22.192;2023-06-01T10:56:26;99691.06;;;29.00;43.49
68634;BME280;55625;47.072;22.192;2023-06-01T11:01:43;99697.88;;;29.33;42.25
68634;BME280;55625;47.072;22.192;2023-06-01T11:04:10;99699.06;;;29.53;39.78
68634;BME280;55625;47.072;22.192;2023-06-01T11:06:41;99691.47;;;29.50;40.20
68634;BME280;55625;47.072;22.192;2023-06-01T11:09:10;99688.34;;;29.48;40.67
68634;BME280;55625;47.072;22.192;2023-06-01T11:14:19;99686.38;;;29.27;41.50
68634;BME280;55625;47.072;22.192;2023-06-01T11:16:49;99679.34;;;29.38;39.57
68634;BME280;55625;47.072;22.192;2023-06-01T11:19:24;99682.69;;;29.19;38.87
68634;BME280;55625;47.072;22.192;2023-06-01T11:22:00;99679.38;;;29.08;41.33
68634;BME280;55625;47.072;22.192;2023-06-01T11:24:37;99675.31;;;29.11;44.05
68634;BME280;55625;47.072;22.192;2023-06-01T11:27:10;99672.94;;;29.24;41.41
68634;BME280;55625;47.072;22.192;2023-06-01T11:29:36;99667.09;;;29.17;40.41
68634;BME280;55625;47.072;22.192;2023-06-01T11:32:04;99660.88;;;28.97;40.66
68634;BME280;55625;47.072;22.192;2023-06-01T11:34:34;99663.97;;;28.84;44.19
68634;BME280;55625;47.072;22.192;2023-06-01T11:37:03;99648.41;;;29.20;42.05
68634;BME280;55625;47.072;22.192;2023-06-01T11:39:29;99649.75;;;29.19;40.98
68634;BME280;55625;47.072;22.192;2023-06-01T11:44:38;99655.16;;;29.37;41.11
68634;BME280;55625;47.072;22.192;2023-06-01T11:47:05;99648.94;;;29.33;38.46
68634;BME280;55625;47.072;22.192;2023-06-01T11:52:11;99645.84;;;29.24;42.08
68634;BME280;55625;47.072;22.192;2023-06-01T11:54:37;99636.84;;;29.37;41.09
68634;BME280;55625;47.072;22.192;2023-06-01T11:57:04;99642.72;;;29.45;42.27
68634;BME280;55625;47.072;22.192;2023-06-01T11:59:46;99639.59;;;29.43;42.50
68634;BME280;55625;47.072;22.192;2023-06-01T12:02:28;99630.19;;;29.59;40.82
68634;BME280;55625;47.072;22.192;2023-06-01T12:05:03;99625.72;;;29.58;40.57
68634;BME280;55625;47.072;22.192;2023-06-01T12:07:51;99629.44;;;29.51;42.64
68634;BME280;55625;47.072;22.192;2023-06-01T12:10:19;99624.19;;;29.50;43.73
68634;BME280;55625;47.072;22.192;2023-06-01T12:12:46;99621.75;;;29.79;41.53
68634;BME280;55625;47.072;22.192;2023-06-01T12:15:16;99620.53;;;29.89;38.62
68634;BME280;55625;47.072;22.192;2023-06-01T12:17:55;99623.16;;;29.70;41.71
68634;BME280;55625;47.072;22.192;2023-06-01T12:20:37;99614.63;;;29.34;38.49
68634;BME280;55625;47.072;22.192;2023-06-01T12:25:36;99605.47;;;29.53;39.75
68634;BME280;55625;47.072;22.192;2023-06-01T12:28:06;99608.06;;;29.18;42.23
68634;BME280;55625;47.072;22.192;2023-06-01T12:30:33;99623.25;;;28.71;41.64
68634;BME280;55625;47.072;22.192;2023-06-01T12:33:00;99614.25;;;28.38;40.74
68634;BME280;55625;47.072;22.192;2023-06-01T12:35:26;99609.34;;;28.18;43.93
68634;BME280;55625;47.072;22.192;2023-06-01T12:38:06;99614.16;;;28.00;40.92
68634;BME280;55625;47.072;22.192;2023-06-01T12:40:33;99607.94;;;28.04;44.83
68634;BME280;55625;47.072;22.192;2023-06-01T12:42:59;99605.59;;;28.02;43.46
68634;BME280;55625;47.072;22.192;2023-06-01T12:45:25;99598.22;;;28.09;41.80
68634;BME280;55625;47.072;22.192;2023-06-01T12:47:59;99600.16;;;28.06;43.57
68634;BME280;55625;47.072;22.192;2023-06-01T12:50:25;99593.63;;;28.29;43.80
68634;BME280;55625;47.072;22.192;2023-06-01T12:52:51;99592.66;;;28.41;43.81
68634;BME280;55625;47.072;22.192;2023-06-01T12:55:17;99588.78;;;28.54;41.25
68634;BME280;55625;47.072;22.192;2023-06-01T12:57:44;99588.19;;;28.63;41.92
68634;BME280;55625;47.072;22.192;2023-06-01T13:00:18;99579.84;;;28.90;41.90
68634;BME280;55625;47.072;22.192;2023-06-01T13:02:44;99567.94;;;28.81;41.12
68634;BME280;55625;47.072;22.192;2023-06-01T13:05:13;99579.81;;;28.83;42.73
68634;BME280;55625;47.072;22.192;2023-06-01T13:07:41;99574.19;;;28.92;40.95
68634;BME280;55625;47.072;22.192;2023-06-01T13:10:10;99566.78;;;28.99;41.27
68634;BME280;55625;47.072;22.192;2023-06-01T13:12:36;99576.28;;;28.46;42.44
68634;BME280;55625;47.072;22.192;2023-06-01T13:15:02;99579.91;;;28.08;41.24
68634;BME280;55625;47.072;22.192;2023-06-01T13:17:29;99567.06;;;27.96;42.56
68634;BME280;55625;47.072;22.192;2023-06-01T13:19:55;99565.91;;;27.99;44.13
68634;BME280;55625;47.072;22.192;2023-06-01T13:22:21;99571.16;;;28.08;44.00
68634;BME280;55625;47.072;22.192;2023-06-01T13:24:47;99570.91;;;27.83;42.24
68634;BME280;55625;47.072;22.192;2023-06-01T13:27:14;99577.28;;;27.67;43.61
68634;BME280;55625;47.072;22.192;2023-06-01T13:29:40;99572.69;;;27.50;43.61
68634;BME280;55625;47.072;22.192;2023-06-01T13:32:06;99567.25;;;27.54;43.55
68634;BME280;55625;47.072;22.192;2023-06-01T13:34:32;99573.22;;;27.41;42.27